Time,TemperatureF,DewpointF,PressureIn,WindDirection,WindDirectionDegrees,WindSpeedMPH,WindSpeedGustMPH,Humidity,HourlyPrecipIn,Conditions,Clouds,dailyrainin,SolarRadiationWatts/m^2,SoftwareType,DateUTC
2013-04-10 00:01:00,57.3,35.0,30.12,ESE,123,1.0,2.0,44,0.00,,,0.00,0,weatherlink.com 1.10,2013-04-10 07:01:00,
2013-04-10 00:16:00,57.3,35.0,30.12,ESE,123,1.0,4.0,44,0.00,,,0.00,0,weatherlink.com 1.10,2013-04-10 07:16:00,
2013-04-10 00:31:00,57.7,36.0,30.12,ESE,123,2.0,3.0,44,0.00,,,0.00,0,weatherlink.com 1.10,2013-04-10 07:31:00,
2013-04-10 00:46:00,57.0,36.0,30.13,ESE,123,0.0,1.0,45,0.00,,,0.00,0,weatherlink.com 1.10,2013-04-10 07:46:00,
2013-04-10 01:01:00,56.0,37.0,30.13,ESE,123,0.0,1.0,49,0.00,,,0.00,0,weatherlink.com 1.10,2013-04-10 08:01:00,
2013-04-10 01:16:00,54.9,36.0,30.13,ESE,123,0.0,1.0,50,0.00,,,0.00,0,weatherlink.com 1.10,2013-04-10 08:16:00,
2013-04-10 01:31:00,54.7,37.0,30.13,ESE,123,1.0,3.0,52,0.00,,,0.00,0,weatherlink.com 1.10,2013-04-10 08:31:00,
2013-04-10 01:46:00,54.6,37.0,30.13,ESE,123,0.0,3.0,52,0.00,,,0.00,0,weatherlink.com 1.10,2013-04-10 08:46:00,
2013-04-10 02:01:00,54.2,37.0,30.12,ESE,123,0.0,1.0,53,0.00,,,0.00,0,weatherlink.com 1.10,2013-04-10 09:01:00,
2013-04-10 02:16:00,53.5,37.0,30.12,ESE,123,0.0,1.0,54,0.00,,,0.00,0,weatherlink.com 1.10,2013-04-10 09:16:00,
2013-04-10 02:31:00,53.0,37.0,30.12,ESE,123,0.0,1.0,56,0.00,,,0.00,0,weatherlink.com 1.10,2013-04-10 09:31:00,
2013-04-10 02:47:00,52.4,38.0,30.12,ESE,123,1.0,2.0,58,0.00,,,0.00,0,weatherlink.com 1.10,2013-04-10 09:47:00,
2013-04-10 03:02:00,52.6,38.0,30.12,ESE,123,0.0,5.0,57,0.00,,,0.00,0,weatherlink.com 1.10,2013-04-10 10:02:00,
2013-04-10 03:17:00,52.7,38.0,30.12,ESE,123,0.0,2.0,57,0.00,,,0.00,0,weatherlink.com 1.10,2013-04-10 10:17:00,
2013-04-10 03:32:00,52.0,38.0,30.13,ESE,123,0.0,1.0,59,0.00,,,0.00,0,weatherlink.com 1.10,2013-04-10 10:32:00,
2013-04-10 03:47:00,51.1,38.0,30.13,ESE,123,1.0,2.0,61,0.00,,,0.00,0,weatherlink.com 1.10,2013-04-10 10:47:00,
2013-04-10 04:02:00,50.8,38.0,30.13,ESE,123,1.0,2.0,62,0.00,,,0.00,0,weatherlink.com 1.10,2013-04-10 11:02:00,
2013-04-10 04:17:00,50.6,38.0,30.14,ESE,123,0.0,2.0,63,0.00,,,0.00,0,weatherlink.com 1.10,2013-04-10 11:17:00,
2013-04-10 04:32:00,50.2,39.0,30.14,ESE,123,0.0,2.0,65,0.00,,,0.00,0,weatherlink.com 1.10,2013-04-10 11:32:00,
2013-04-10 04:47:00,49.9,39.0,30.15,ESE,123,0.0,0.0,66,0.00,,,0.00,0,weatherlink.com 1.10,2013-04-10 11:47:00,
2013-04-10 05:02:00,49.7,39.0,30.15,ESE,123,0.0,3.0,66,0.00,,,0.00,0,weatherlink.com 1.10,2013-04-10 12:02:00,
2013-04-10 05:17:00,49.6,39.0,30.16,ESE,123,0.0,4.0,66,0.00,,,0.00,0,weatherlink.com 1.10,2013-04-10 12:17:00,
2013-04-10 05:32:00,49.8,39.0,30.16,ESE,123,1.0,3.0,66,0.00,,,0.00,0,weatherlink.com 1.10,2013-04-10 12:32:00,
2013-04-10 05:47:00,49.9,39.0,30.16,ESE,123,0.0,1.0,66,0.00,,,0.00,0,weatherlink.com 1.10,2013-04-10 12:47:00,
2013-04-10 06:02:00,49.6,39.0,30.17,ESE,123,0.0,1.0,67,0.00,,,0.00,0,weatherlink.com 1.10,2013-04-10 13:02:00,
2013-04-10 06:17:00,49.4,39.0,30.18,ESE,123,0.0,4.0,67,0.00,,,0.00,0,weatherlink.com 1.10,2013-04-10 13:17:00,
2013-04-10 06:32:00,49.4,39.0,30.18,ESE,123,0.0,1.0,67,0.00,,,0.00,0,weatherlink.com 1.10,2013-04-10 13:32:00,
2013-04-10 06:47:00,49.1,39.0,30.19,ESE,123,0.0,2.0,69,0.00,,,0.00,7,weatherlink.com 1.10,2013-04-10 13:47:00,
2013-04-10 07:02:00,49.2,39.0,30.20,ESE,123,0.0,2.0,69,0.00,,,0.00,14,weatherlink.com 1.10,2013-04-10 14:02:00,
2013-04-10 07:17:00,49.8,40.0,30.20,ESE,123,0.0,1.0,69,0.00,,,0.00,42,weatherlink.com 1.10,2013-04-10 14:17:00,
2013-04-10 07:32:00,51.2,41.0,30.20,ESE,123,0.0,2.0,67,0.00,,,0.00,28,weatherlink.com 1.10,2013-04-10 14:32:00,
2013-04-10 07:47:00,52.5,41.0,30.21,ESE,123,1.0,2.0,65,0.00,,,0.00,40,weatherlink.com 1.10,2013-04-10 14:47:00,
2013-04-10 08:02:00,54.3,41.0,30.21,ESE,123,0.0,2.0,61,0.00,,,0.00,163,weatherlink.com 1.10,2013-04-10 15:02:00,
2013-04-10 08:17:00,57.6,42.0,30.21,ESE,123,1.0,2.0,56,0.00,,,0.00,290,weatherlink.com 1.10,2013-04-10 15:17:00,
2013-04-10 08:32:00,59.6,42.0,30.22,ESE,123,0.0,3.0,53,0.00,,,0.00,345,weatherlink.com 1.10,2013-04-10 15:32:00,
2013-04-10 08:47:00,62.1,43.0,30.22,ESE,123,3.0,4.0,50,0.00,,,0.00,401,weatherlink.com 1.10,2013-04-10 15:47:00,
2013-04-10 09:02:00,64.6,43.0,30.22,ESE,123,0.0,2.0,46,0.00,,,0.00,450,weatherlink.com 1.10,2013-04-10 16:02:00,
2013-04-10 09:18:00,67.5,45.0,30.22,ESE,123,1.0,2.0,44,0.00,,,0.00,501,weatherlink.com 1.10,2013-04-10 16:18:00,
2013-04-10 09:33:00,70.3,45.0,30.21,ESE,123,0.0,3.0,40,0.00,,,0.00,550,weatherlink.com 1.10,2013-04-10 16:33:00,
2013-04-10 09:48:00,71.9,46.0,30.21,WSW,242,2.0,3.0,39,0.00,,,0.00,596,weatherlink.com 1.10,2013-04-10 16:48:00,
2013-04-10 10:03:00,72.3,47.0,30.21,WSW,249,1.0,4.0,40,0.00,,,0.00,642,weatherlink.com 1.10,2013-04-10 17:03:00,
2013-04-10 10:18:00,74.3,44.0,30.21,North,5,1.0,6.0,34,0.00,,,0.00,682,weatherlink.com 1.10,2013-04-10 17:18:00,
2013-04-10 10:33:00,75.1,44.0,30.21,NE,40,1.0,5.0,33,0.00,,,0.00,717,weatherlink.com 1.10,2013-04-10 17:33:00,
2013-04-10 10:48:00,75.6,44.0,30.21,NNW,347,3.0,6.0,33,0.00,,,0.00,751,weatherlink.com 1.10,2013-04-10 17:48:00,
2013-04-10 11:03:00,75.5,44.0,30.21,NE,35,4.0,8.0,33,0.00,,,0.00,782,weatherlink.com 1.10,2013-04-10 18:03:00,
2013-04-10 11:18:00,77.1,45.0,30.21,NE,51,1.0,5.0,32,0.00,,,0.00,810,weatherlink.com 1.10,2013-04-10 18:18:00,
2013-04-10 11:33:00,77.4,45.0,30.21,NE,42,3.0,8.0,32,0.00,,,0.00,833,weatherlink.com 1.10,2013-04-10 18:33:00,
2013-04-10 11:48:00,77.6,45.0,30.20,North,5,1.0,8.0,31,0.00,,,0.00,853,weatherlink.com 1.10,2013-04-10 18:48:00,
2013-04-10 12:03:00,78.0,44.0,30.20,North,5,4.0,6.0,30,0.00,,,0.00,874,weatherlink.com 1.10,2013-04-10 19:03:00,
2013-04-10 12:18:00,79.2,45.0,30.19,North,350,0.0,5.0,30,0.00,,,0.00,889,weatherlink.com 1.10,2013-04-10 19:18:00,
2013-04-10 12:33:00,80.1,45.0,30.18,NNW,331,1.0,4.0,29,0.00,,,0.00,900,weatherlink.com 1.10,2013-04-10 19:33:00,
2013-04-10 12:48:00,81.5,47.0,30.18,WSW,253,1.0,6.0,30,0.00,,,0.00,900,weatherlink.com 1.10,2013-04-10 19:48:00,
2013-04-10 13:03:00,81.3,46.0,30.17,West,268,2.0,5.0,29,0.00,,,0.00,904,weatherlink.com 1.10,2013-04-10 20:03:00,
2013-04-10 13:18:00,81.4,47.0,30.16,West,266,4.0,8.0,30,0.00,,,0.00,902,weatherlink.com 1.10,2013-04-10 20:18:00,
2013-04-10 13:33:00,81.7,46.0,30.15,WSW,244,7.0,8.0,29,0.00,,,0.00,895,weatherlink.com 1.10,2013-04-10 20:33:00,
2013-04-10 13:48:00,82.4,48.0,30.14,WSW,242,0.0,4.0,30,0.00,,,0.00,886,weatherlink.com 1.10,2013-04-10 20:48:00,
2013-04-10 14:03:00,84.4,48.0,30.14,ESE,120,0.0,5.0,28,0.00,,,0.00,872,weatherlink.com 1.10,2013-04-10 21:03:00,
2013-04-10 14:19:00,84.6,46.0,30.13,WSW,252,10.0,10.0,26,0.00,,,0.00,858,weatherlink.com 1.10,2013-04-10 21:19:00,
2013-04-10 14:34:00,84.6,46.0,30.12,West,263,0.0,8.0,26,0.00,,,0.00,833,weatherlink.com 1.10,2013-04-10 21:34:00,
2013-04-10 14:49:00,85.2,49.0,30.12,WSW,248,2.0,8.0,28,0.00,,,0.00,807,weatherlink.com 1.10,2013-04-10 21:49:00,
2013-04-10 15:04:00,85.0,48.0,30.11,West,274,0.0,8.0,28,0.00,,,0.00,777,weatherlink.com 1.10,2013-04-10 22:04:00,
2013-04-10 15:20:00,85.7,49.0,30.10,WSW,258,7.0,10.0,28,0.00,,,0.00,744,weatherlink.com 1.10,2013-04-10 22:20:00,
2013-04-10 15:34:00,85.2,50.0,30.10,SW,236,1.0,11.0,30,0.00,,,0.00,710,weatherlink.com 1.10,2013-04-10 22:34:00,
2013-04-10 15:49:00,85.4,51.0,30.09,West,279,12.0,12.0,31,0.00,,,0.00,668,weatherlink.com 1.10,2013-04-10 22:49:00,
2013-04-10 16:04:00,83.0,52.0,30.10,WNW,286,12.0,15.0,34,0.00,,,0.00,622,weatherlink.com 1.10,2013-04-10 23:04:00,
2013-04-10 16:19:00,81.8,50.0,30.09,SW,236,7.0,16.0,33,0.00,,,0.00,580,weatherlink.com 1.10,2013-04-10 23:19:00,
2013-04-10 16:34:00,81.0,49.0,30.09,West,259,12.0,14.0,33,0.00,,,0.00,538,weatherlink.com 1.10,2013-04-10 23:34:00,
2013-04-10 16:49:00,81.1,50.0,30.09,West,267,7.0,15.0,34,0.00,,,0.00,492,weatherlink.com 1.10,2013-04-10 23:49:00,
2013-04-10 17:04:00,81.3,50.0,30.08,WSW,250,4.0,12.0,33,0.00,,,0.00,450,weatherlink.com 1.10,2013-04-11 00:04:00,
2013-04-10 17:19:00,81.6,49.0,30.08,SW,229,8.0,12.0,32,0.00,,,0.00,399,weatherlink.com 1.10,2013-04-11 00:19:00,
2013-04-10 17:34:00,81.6,49.0,30.08,West,259,4.0,12.0,32,0.00,,,0.00,341,weatherlink.com 1.10,2013-04-11 00:34:00,
2013-04-10 17:49:00,80.6,51.0,30.07,West,267,4.0,11.0,35,0.00,,,0.00,169,weatherlink.com 1.10,2013-04-11 00:49:00,
2013-04-10 18:05:00,79.8,51.0,30.08,WSW,244,3.0,12.0,36,0.00,,,0.00,207,weatherlink.com 1.10,2013-04-11 01:05:00,
2013-04-10 18:19:00,79.1,50.0,30.07,SW,227,2.0,7.0,36,0.00,,,0.00,185,weatherlink.com 1.10,2013-04-11 01:19:00,
2013-04-10 18:34:00,79.6,52.0,30.07,South,188,1.0,5.0,38,0.00,,,0.00,113,weatherlink.com 1.10,2013-04-11 01:34:00,
2013-04-10 18:49:00,76.8,52.0,30.08,SW,219,2.0,8.0,42,0.00,,,0.00,91,weatherlink.com 1.10,2013-04-11 01:49:00,
2013-04-10 19:04:00,75.2,51.0,30.08,WSW,246,0.0,9.0,43,0.00,,,0.00,51,weatherlink.com 1.10,2013-04-11 02:04:00,
2013-04-10 19:19:00,72.5,52.0,30.08,SW,232,4.0,7.0,49,0.00,,,0.00,23,weatherlink.com 1.10,2013-04-11 02:19:00,
2013-04-10 19:34:00,69.6,52.0,30.08,SSW,199,0.0,6.0,53,0.00,,,0.00,5,weatherlink.com 1.10,2013-04-11 02:34:00,
2013-04-10 19:49:00,67.7,51.0,30.07,South,169,1.0,7.0,55,0.00,,,0.00,0,weatherlink.com 1.10,2013-04-11 02:49:00,
2013-04-10 20:04:00,66.6,51.0,30.07,SSW,207,4.0,4.0,57,0.00,,,0.00,0,weatherlink.com 1.10,2013-04-11 03:04:00,
2013-04-10 20:19:00,66.0,50.0,30.08,West,269,1.0,6.0,57,0.00,,,0.00,0,weatherlink.com 1.10,2013-04-11 03:19:00,
2013-04-10 20:34:00,65.7,51.0,30.08,SW,219,0.0,3.0,59,0.00,,,0.00,0,weatherlink.com 1.10,2013-04-11 03:34:00,
2013-04-10 20:49:00,64.7,51.0,30.08,SSE,148,1.0,5.0,62,0.00,,,0.00,0,weatherlink.com 1.10,2013-04-11 03:49:00,
2013-04-10 21:04:00,63.4,51.0,30.09,WSW,244,1.0,6.0,64,0.00,,,0.00,0,weatherlink.com 1.10,2013-04-11 04:04:00,
2013-04-10 21:19:00,62.2,51.0,30.09,South,186,2.0,5.0,67,0.00,,,0.00,0,weatherlink.com 1.10,2013-04-11 04:19:00,
2013-04-10 21:34:00,61.2,51.0,30.10,SSW,194,1.0,6.0,70,0.00,,,0.00,0,weatherlink.com 1.10,2013-04-11 04:34:00,
2013-04-10 21:49:00,60.4,51.0,30.09,SSW,211,0.0,5.0,71,0.00,,,0.00,0,weatherlink.com 1.10,2013-04-11 04:49:00,
2013-04-10 22:04:00,59.7,51.0,30.10,SE,140,2.0,5.0,72,0.00,,,0.00,0,weatherlink.com 1.10,2013-04-11 05:04:00,
2013-04-10 22:19:00,59.3,50.0,30.10,ESE,121,0.0,5.0,72,0.00,,,0.00,0,weatherlink.com 1.10,2013-04-11 05:19:00,
2013-04-10 22:34:00,58.8,50.0,30.10,SSE,167,0.0,6.0,73,0.00,,,0.00,0,weatherlink.com 1.10,2013-04-11 05:34:00,
2013-04-10 22:49:00,58.5,50.0,30.10,SSW,198,0.0,1.0,73,0.00,,,0.00,0,weatherlink.com 1.10,2013-04-11 05:49:00,
2013-04-10 23:04:00,58.1,50.0,30.10,SSW,198,0.0,3.0,74,0.00,,,0.00,0,weatherlink.com 1.10,2013-04-11 06:04:00,
2013-04-10 23:19:00,57.7,50.0,30.10,ESE,123,0.0,3.0,76,0.00,,,0.00,0,weatherlink.com 1.10,2013-04-11 06:19:00,
2013-04-10 23:34:00,57.2,50.0,30.10,SSE,148,4.0,4.0,77,0.00,,,0.00,0,weatherlink.com 1.10,2013-04-11 06:34:00,
2013-04-10 23:49:00,56.4,50.0,30.09,South,170,1.0,6.0,79,0.00,,,0.00,0,weatherlink.com 1.10,2013-04-11 06:49:00,